sensor_id;sensor_type;location;lat;lon;timestamp;pressure;altitude;pressure_sealevel;temperature;humidity
80139;BME280;69467;59.842;17.604;2024-02-04T00:01:14;98456.00;;;2.22;85.52
80139;BME280;69467;59.842;17.604;2024-02-04T00:03:39;98456.56;;;2.24;84.51
80139;BME280;69467;59.842;17.604;2024-02-04T00:06:05;98455.72;;;2.23;83.05
80139;BME280;69467;59.842;17.604;2024-02-04T00:08:31;98467.34;;;2.24;83.24
80139;BME280;69467;59.842;17.604;2024-02-04T00:10:57;98446.53;;;2.19;83.68
80139;BME280;69467;59.842;17.604;2024-02-04T00:13:22;98451.63;;;2.16;84.09
80139;BME280;69467;59.842;17.604;2024-02-04T00:15:47;98443.53;;;2.16;83.80
80139;BME280;69467;59.842;17.604;2024-02-04T00:18:12;98433.56;;;2.16;84.59
80139;BME280;69467;59.842;17.604;2024-02-04T00:20:38;98444.09;;;2.13;84.50
80139;BME280;69467;59.842;17.604;2024-02-04T00:23:03;98424.09;;;2.14;84.62
80139;BME280;69467;59.842;17.604;2024-02-04T00:25:28;98440.31;;;2.14;85.02
80139;BME280;69467;59.842;17.604;2024-02-04T00:27:54;98434.91;;;2.14;85.53
80139;BME280;69467;59.842;17.604;2024-02-04T00:30:20;98428.69;;;2.13;85.27
80139;BME280;69467;59.842;17.604;2024-02-04T00:32:45;98445.94;;;2.12;85.62
80139;BME280;69467;59.842;17.604;2024-02-04T00:35:10;98446.22;;;2.11;85.73
80139;BME280;69467;59.842;17.604;2024-02-04T00:37:36;98438.69;;;2.13;85.49
80139;BME280;69467;59.842;17.604;2024-02-04T00:40:01;98444.88;;;2.13;85.71
80139;BME280;69467;59.842;17.604;2024-02-04T00:42:26;98447.56;;;2.13;86.56
80139;BME280;69467;59.842;17.604;2024-02-04T00:44:52;98441.63;;;2.11;87.42
80139;BME280;69467;59.842;17.604;2024-02-04T00:47:17;98445.94;;;2.07;87.29
80139;BME280;69467;59.842;17.604;2024-02-04T00:49:42;98439.72;;;2.06;88.37
80139;BME280;69467;59.842;17.604;2024-02-04T00:52:07;98448.91;;;2.05;88.43
80139;BME280;69467;59.842;17.604;2024-02-04T00:54:33;98465.91;;;2.06;87.98
80139;BME280;69467;59.842;17.604;2024-02-04T00:56:58;98435.13;;;2.07;86.75
80139;BME280;69467;59.842;17.604;2024-02-04T00:59:25;98438.91;;;2.06;87.42
80139;BME280;69467;59.842;17.604;2024-02-04T01:01:50;98441.88;;;2.04;87.54
80139;BME280;69467;59.842;17.604;2024-02-04T01:04:15;98430.78;;;2.01;86.72
80139;BME280;69467;59.842;17.604;2024-02-04T01:06:40;98440.78;;;2.00;86.50
80139;BME280;69467;59.842;17.604;2024-02-04T01:09:06;98456.72;;;2.02;84.65
80139;BME280;69467;59.842;17.604;2024-02-04T01:11:31;98442.41;;;2.01;84.72
80139;BME280;69467;59.842;17.604;2024-02-04T01:13:57;98445.88;;;1.97;86.42
80139;BME280;69467;59.842;17.604;2024-02-04T01:16:22;98455.31;;;1.94;85.21
80139;BME280;69467;59.842;17.604;2024-02-04T01:18:47;98444.25;;;1.96;84.11
80139;BME280;69467;59.842;17.604;2024-02-04T01:21:12;98454.75;;;1.92;84.05
80139;BME280;69467;59.842;17.604;2024-02-04T01:23:38;98456.41;;;1.93;83.38
80139;BME280;69467;59.842;17.604;2024-02-04T01:26:03;98445.59;;;1.93;81.68
80139;BME280;69467;59.842;17.604;2024-02-04T01:28:28;98449.38;;;1.92;80.05
80139;BME280;69467;59.842;17.604;2024-02-04T01:30:54;98445.88;;;1.91;79.91
80139;BME280;69467;59.842;17.604;2024-02-04T01:33:19;98469.34;;;1.91;78.90
80139;BME280;69467;59.842;17.604;2024-02-04T01:35:44;98450.13;;;1.87;76.43
80139;BME280;69467;59.842;17.604;2024-02-04T01:38:09;98448.81;;;1.90;74.39
80139;BME280;69467;59.842;17.604;2024-02-04T01:40:34;98442.34;;;1.91;74.18
80139;BME280;69467;59.842;17.604;2024-02-04T01:43:00;98465.28;;;1.93;72.00
80139;BME280;69467;59.842;17.604;2024-02-04T01:45:26;98451.00;;;1.93;70.82
80139;BME280;69467;59.842;17.604;2024-02-04T01:47:51;98453.97;;;1.91;69.94
80139;BME280;69467;59.842;17.604;2024-02-04T01:50:18;98454.19;;;1.90;70.85
80139;BME280;69467;59.842;17.604;2024-02-04T01:52:43;98443.66;;;1.88;69.86
80139;BME280;69467;59.842;17.604;2024-02-04T01:55:09;98463.34;;;1.84;69.81
80139;BME280;69467;59.842;17.604;2024-02-04T01:57:34;98461.22;;;1.86;68.36
80139;BME280;69467;59.842;17.604;2024-02-04T02:00:02;98462.53;;;1.83;67.18
80139;BME280;69467;59.842;17.604;2024-02-04T02:02:29;98460.41;;;1.85;65.29
80139;BME280;69467;59.842;17.604;2024-02-04T02:04:55;98471.47;;;1.89;64.98
80139;BME280;69467;59.842;17.604;2024-02-04T02:07:21;98483.91;;;1.90;64.72
80139;BME280;69467;59.842;17.604;2024-02-04T02:09:47;98469.31;;;1.86;64.90
80139;BME280;69467;59.842;17.604;2024-02-04T02:14:48;98476.03;;;1.83;63.85
80139;BME280;69467;59.842;17.604;2024-02-04T02:17:16;98488.47;;;1.84;64.07
80139;BME280;69467;59.842;17.604;2024-02-04T02:19:46;98479.81;;;1.82;63.00
80139;BME280;69467;59.842;17.604;2024-02-04T02:22:28;98489.81;;;1.82;63.14
80139;BME280;69467;59.842;17.604;2024-02-04T02:24:55;98494.63;;;1.80;63.12
80139;BME280;69467;59.842;17.604;2024-02-04T02:27:21;98488.66;;;1.77;63.40
80139;BME280;69467;59.842;17.604;2024-02-04T02:29:46;98488.63;;;1.72;62.16
80139;BME280;69467;59.842;17.604;2024-02-04T02:32:11;98483.53;;;1.76;62.94
80139;BME280;69467;59.842;17.604;2024-02-04T02:34:37;98490.00;;;1.75;61.98
80139;BME280;69467;59.842;17.604;2024-02-04T02:39:29;98501.38;;;1.77;60.27
80139;BME280;69467;59.842;17.604;2024-02-04T02:41:57;98481.09;;;1.74;60.74
80139;BME280;69467;59.842;17.604;2024-02-04T02:44:23;98485.69;;;1.74;59.79
80139;BME280;69467;59.842;17.604;2024-02-04T02:46:50;98488.63;;;1.72;60.00
80139;BME280;69467;59.842;17.604;2024-02-04T02:49:15;98485.94;;;1.72;59.18
80139;BME280;69467;59.842;17.604;2024-02-04T02:51:40;98484.31;;;1.71;59.51
80139;BME280;69467;59.842;17.604;2024-02-04T02:54:05;98494.56;;;1.69;60.08
80139;BME280;69467;59.842;17.604;2024-02-04T02:56:31;98488.06;;;1.70;58.75
80139;BME280;69467;59.842;17.604;2024-02-04T02:58:56;98481.06;;;1.69;58.51
80139;BME280;69467;59.842;17.604;2024-02-04T03:01:21;98487.53;;;1.68;58.66
80139;BME280;69467;59.842;17.604;2024-02-04T03:03:48;98485.09;;;1.67;58.90
80139;BME280;69467;59.842;17.604;2024-02-04T03:06:13;98487.25;;;1.65;58.61
80139;BME280;69467;59.842;17.604;2024-02-04T03:08:39;98493.97;;;1.62;58.14
80139;BME280;69467;59.842;17.604;2024-02-04T03:11:04;98493.13;;;1.61;57.11
80139;BME280;69467;59.842;17.604;2024-02-04T03:13:29;98495.03;;;1.61;58.17
80139;BME280;69467;59.842;17.604;2024-02-04T03:15:55;98495.81;;;1.56;58.69
80139;BME280;69467;59.842;17.604;2024-02-04T03:18:20;98496.34;;;1.53;58.35
80139;BME280;69467;59.842;17.604;2024-02-04T03:20:46;98494.72;;;1.52;58.00
80139;BME280;69467;59.842;17.604;2024-02-04T03:23:11;98489.56;;;1.51;57.59
80139;BME280;69467;59.842;17.604;2024-02-04T03:25:36;98493.06;;;1.51;56.09
80139;BME280;69467;59.842;17.604;2024-02-04T03:28:02;98494.97;;;1.51;56.52
80139;BME280;69467;59.842;17.604;2024-02-04T03:30:28;98492.28;;;1.51;57.24
80139;BME280;69467;59.842;17.604;2024-02-04T03:32:53;98490.63;;;1.50;56.19
80139;BME280;69467;59.842;17.604;2024-02-04T03:35:18;98498.72;;;1.50;55.44
80139;BME280;69467;59.842;17.604;2024-02-04T03:37:44;98500.88;;;1.48;55.92
80139;BME280;69467;59.842;17.604;2024-02-04T03:40:09;98490.06;;;1.48;55.44
80139;BME280;69467;59.842;17.604;2024-02-04T03:42:35;98505.69;;;1.45;56.37
80139;BME280;69467;59.842;17.604;2024-02-04T03:45:00;98498.13;;;1.42;55.38
80139;BME280;69467;59.842;17.604;2024-02-04T03:47:27;98509.19;;;1.41;55.97
80139;BME280;69467;59.842;17.604;2024-02-04T03:49:52;98502.16;;;1.40;55.73
80139;BME280;69467;59.842;17.604;2024-02-04T03:52:18;98510.50;;;1.38;56.06
80139;BME280;69467;59.842;17.604;2024-02-04T03:54:43;98504.56;;;1.36;56.65
80139;BME280;69467;59.842;17.604;2024-02-04T03:57:08;98502.91;;;1.35;56.71
80139;BME280;69467;59.842;17.604;2024-02-04T03:59:33;98496.66;;;1.29;56.26
80139;BME280;69467;59.842;17.604;2024-02-04T04:01:58;98507.44;;;1.29;56.16
80139;BME280;69467;59.842;17.604;2024-02-04T04:04:24;98519.56;;;1.27;56.30
80139;BME280;69467;59.842;17.604;2024-02-04T04:06:51;98510.41;;;1.28;56.40
80139;BME280;69467;59.842;17.604;2024-02-04T04:09:16;98508.78;;;1.27;56.45
80139;BME280;69467;59.842;17.604;2024-02-04T04:11:41;98513.34;;;1.26;56.27
80139;BME280;69467;59.842;17.604;2024-02-04T04:14:06;98522.50;;;1.25;56.52
80139;BME280;69467;59.842;17.604;2024-02-04T04:16:32;98519.25;;;1.23;56.13
80139;BME280;69467;59.842;17.604;2024-02-04T04:18:57;98518.72;;;1.21;57.30
80139;BME280;69467;59.842;17.604;2024-02-04T04:21:23;98520.28;;;1.17;56.75
80139;BME280;69467;59.842;17.604;2024-02-04T04:23:48;98518.13;;;1.19;57.76
80139;BME280;69467;59.842;17.604;2024-02-04T04:26:14;98524.88;;;1.17;58.13
80139;BME280;69467;59.842;17.604;2024-02-04T04:28:39;98531.56;;;1.14;57.30
80139;BME280;69467;59.842;17.604;2024-02-04T04:31:04;98517.25;;;1.13;56.76
80139;BME280;69467;59.842;17.604;2024-02-04T04:33:30;98520.22;;;1.12;57.23
80139;BME280;69467;59.842;17.604;2024-02-04T04:35:55;98517.78;;;1.10;57.53
80139;BME280;69467;59.842;17.604;2024-02-04T04:38:20;98517.78;;;1.10;57.03
80139;BME280;69467;59.842;17.604;2024-02-04T04:40:45;98535.28;;;1.08;56.80
80139;BME280;69467;59.842;17.604;2024-02-04T04:43:11;98520.97;;;1.07;56.78
80139;BME280;69467;59.842;17.604;2024-02-04T04:45:36;98521.53;;;1.09;56.16
80139;BME280;69467;59.842;17.604;2024-02-04T04:48:01;98518.84;;;1.09;55.82
80139;BME280;69467;59.842;17.604;2024-02-04T04:50:26;98525.31;;;1.08;55.90
80139;BME280;69467;59.842;17.604;2024-02-04T04:52:52;98529.31;;;1.06;55.75
80139;BME280;69467;59.842;17.604;2024-02-04T04:55:18;98513.97;;;1.06;55.49
80139;BME280;69467;59.842;17.604;2024-02-04T04:57:43;98512.34;;;1.05;55.36
80139;BME280;69467;59.842;17.604;2024-02-04T05:00:09;98516.13;;;1.04;55.52
80139;BME280;69467;59.842;17.604;2024-02-04T05:02:35;98525.25;;;1.03;55.86
80139;BME280;69467;59.842;17.604;2024-02-04T05:05:01;98520.63;;;0.99;56.04
80139;BME280;69467;59.842;17.604;2024-02-04T05:07:26;98538.69;;;0.98;55.85
80139;BME280;69467;59.842;17.604;2024-02-04T05:09:51;98538.69;;;0.98;55.55
80139;BME280;69467;59.842;17.604;2024-02-04T05:12:16;98541.88;;;0.95;55.56
80139;BME280;69467;59.842;17.604;2024-02-04T05:14:42;98547.03;;;0.96;56.32
80139;BME280;69467;59.842;17.604;2024-02-04T05:17:07;98542.66;;;0.90;56.34
80139;BME280;69467;59.842;17.604;2024-02-04T05:19:32;98548.84;;;0.91;56.43
80139;BME280;69467;59.842;17.604;2024-02-04T05:21:58;98558.25;;;0.88;56.60
80139;BME280;69467;59.842;17.604;2024-02-04T05:24:23;98547.47;;;0.88;56.60
80139;BME280;69467;59.842;17.604;2024-02-04T05:26:48;98544.47;;;0.85;55.93
80139;BME280;69467;59.842;17.604;2024-02-04T05:29:13;98545.53;;;0.84;55.92
80139;BME280;69467;59.842;17.604;2024-02-04T05:31:42;98555.75;;;0.82;55.91
80139;BME280;69467;59.842;17.604;2024-02-04T05:34:07;98558.47;;;0.82;56.24
80139;BME280;69467;59.842;17.604;2024-02-04T05:36:33;98552.50;;;0.79;56.53
80139;BME280;69467;59.842;17.604;2024-02-04T05:39:08;98548.44;;;0.77;56.89
80139;BME280;69467;59.842;17.604;2024-02-04T05:41:33;98542.22;;;0.76;56.58
80139;BME280;69467;59.842;17.604;2024-02-04T05:43:58;98551.88;;;0.72;56.06
80139;BME280;69467;59.842;17.604;2024-02-04T05:46:24;98546.47;;;0.72;56.71
80139;BME280;69467;59.842;17.604;2024-02-04T05:48:49;98534.91;;;0.72;55.73
80139;BME280;69467;59.842;17.604;2024-02-04T05:51:14;98557.81;;;0.74;55.73
80139;BME280;69467;59.842;17.604;2024-02-04T05:53:39;98551.38;;;0.75;56.36
80139;BME280;69467;59.842;17.604;2024-02-04T05:56:05;98548.59;;;0.70;56.49
80139;BME280;69467;59.842;17.604;2024-02-04T05:58:30;98542.91;;;0.67;56.22
80139;BME280;69467;59.842;17.604;2024-02-04T06:00:55;98534.59;;;0.68;55.73
80139;BME280;69467;59.842;17.604;2024-02-04T06:03:21;98530.25;;;0.67;55.82
80139;BME280;69467;59.842;17.604;2024-02-04T06:05:46;98540.47;;;0.65;56.12
80139;BME280;69467;59.842;17.604;2024-02-04T06:08:11;98540.97;;;0.62;56.58
80139;BME280;69467;59.842;17.604;2024-02-04T06:10:36;98546.59;;;0.60;56.53
80139;BME280;69467;59.842;17.604;2024-02-04T06:13:01;98539.84;;;0.58;56.73
80139;BME280;69467;59.842;17.604;2024-02-04T06:15:27;98544.66;;;0.56;57.09
80139;BME280;69467;59.842;17.604;2024-02-04T06:17:52;98549.22;;;0.55;57.38
80139;BME280;69467;59.842;17.604;2024-02-04T06:20:17;98543.03;;;0.55;56.75
80139;BME280;69467;59.842;17.604;2024-02-04T06:22:43;98542.78;;;0.56;56.10
80139;BME280;69467;59.842;17.604;2024-02-04T06:25:08;98545.47;;;0.56;55.85
80139;BME280;69467;59.842;17.604;2024-02-04T06:27:33;98548.16;;;0.56;55.94
80139;BME280;69467;59.842;17.604;2024-02-04T06:29:58;98535.75;;;0.55;56.41
80139;BME280;69467;59.842;17.604;2024-02-04T06:32:24;98542.47;;;0.53;56.06
80139;BME280;69467;59.842;17.604;2024-02-04T06:34:49;98542.47;;;0.53;56.33
80139;BME280;69467;59.842;17.604;2024-02-04T06:37:16;98543.78;;;0.50;56.87
80139;BME280;69467;59.842;17.604;2024-02-04T06:39:41;98552.13;;;0.48;56.69
80139;BME280;69467;59.842;17.604;2024-02-04T06:42:06;98556.34;;;0.44;56.36
80139;BME280;69467;59.842;17.604;2024-02-04T06:44:32;98546.41;;;0.45;56.38
80139;BME280;69467;59.842;17.604;2024-02-04T06:46:57;98536.69;;;0.44;56.65
80139;BME280;69467;59.842;17.604;2024-02-04T06:49:22;98553.13;;;0.42;57.00
80139;BME280;69467;59.842;17.604;2024-02-04T06:51:47;98540.72;;;0.41;56.69
80139;BME280;69467;59.842;17.604;2024-02-04T06:54:13;98546.09;;;0.41;56.33
80139;BME280;69467;59.842;17.604;2024-02-04T06:56:38;98545.53;;;0.39;56.72
80139;BME280;69467;59.842;17.604;2024-02-04T06:59:04;98554.44;;;0.40;56.39
80139;BME280;69467;59.842;17.604;2024-02-04T07:01:29;98548.78;;;0.41;56.04
80139;BME280;69467;59.842;17.604;2024-02-04T07:03:54;98553.13;;;0.42;56.31
80139;BME280;69467;59.842;17.604;2024-02-04T07:06:19;98549.59;;;0.42;56.11
80139;BME280;69467;59.842;17.604;2024-02-04T07:08:45;98548.22;;;0.39;56.30
80139;BME280;69467;59.842;17.604;2024-02-04T07:11:10;98546.56;;;0.38;56.26
80139;BME280;69467;59.842;17.604;2024-02-04T07:13:35;98545.78;;;0.38;56.38
80139;BME280;69467;59.842;17.604;2024-02-04T07:16:00;98540.13;;;0.39;56.16
80139;BME280;69467;59.842;17.604;2024-02-04T07:18:26;98548.22;;;0.39;56.72
80139;BME280;69467;59.842;17.604;2024-02-04T07:20:51;98542.03;;;0.39;57.07
80139;BME280;69467;59.842;17.604;2024-02-04T07:23:16;98546.56;;;0.38;56.75
80139;BME280;69467;59.842;17.604;2024-02-04T07:25:42;98551.97;;;0.38;56.99
80139;BME280;69467;59.842;17.604;2024-02-04T07:28:07;98547.09;;;0.35;57.05
80139;BME280;69467;59.842;17.604;2024-02-04T07:30:32;98548.41;;;0.32;56.87
80139;BME280;69467;59.842;17.604;2024-02-04T07:32:57;98547.03;;;0.30;56.68
80139;BME280;69467;59.842;17.604;2024-02-04T07:35:23;98545.47;;;0.34;57.08
80139;BME280;69467;59.842;17.604;2024-02-04T07:37:48;98550.84;;;0.34;56.98
80139;BME280;69467;59.842;17.604;2024-02-04T07:40:13;98549.47;;;0.31;57.50
80139;BME280;69467;59.842;17.604;2024-02-04T07:42:39;98554.91;;;0.37;58.11
80139;BME280;69467;59.842;17.604;2024-02-04T07:45:04;98561.63;;;0.34;58.10
80139;BME280;69467;59.842;17.604;2024-02-04T07:47:34;98557.53;;;0.31;58.45
80139;BME280;69467;59.842;17.604;2024-02-04T07:49:59;98565.88;;;0.30;58.71
80139;BME280;69467;59.842;17.604;2024-02-04T07:52:24;98562.59;;;0.28;58.83
80139;BME280;69467;59.842;17.604;2024-02-04T07:54:49;98552.34;;;0.25;59.43
80139;BME280;69467;59.842;17.604;2024-02-04T07:57:15;98560.16;;;0.26;59.42
80139;BME280;69467;59.842;17.604;2024-02-04T07:59:40;98554.53;;;0.28;59.84
80139;BME280;69467;59.842;17.604;2024-02-04T08:02:05;98560.66;;;0.23;60.21
80139;BME280;69467;59.842;17.604;2024-02-04T08:04:32;98570.34;;;0.24;60.40
80139;BME280;69467;59.842;17.604;2024-02-04T08:06:57;98570.69;;;0.28;60.63
80139;BME280;69467;59.842;17.604;2024-02-04T08:09:22;98570.94;;;0.26;60.75
80139;BME280;69467;59.842;17.604;2024-02-04T08:11:47;98567.19;;;0.27;61.09
80139;BME280;69467;59.842;17.604;2024-02-04T08:14:13;98572.31;;;0.29;61.54
80139;BME280;69467;59.842;17.604;2024-02-04T08:16:42;98560.50;;;0.30;61.51
80139;BME280;69467;59.842;17.604;2024-02-04T08:19:08;98554.03;;;0.31;61.79
80139;BME280;69467;59.842;17.604;2024-02-04T08:21:33;98570.75;;;0.33;61.41
80139;BME280;69467;59.842;17.604;2024-02-04T08:23:58;98572.38;;;0.34;61.72
80139;BME280;69467;59.842;17.604;2024-02-04T08:26:24;98567.06;;;0.39;62.01
80139;BME280;69467;59.842;17.604;2024-02-04T08:28:50;98566.59;;;0.42;61.88
80139;BME280;69467;59.842;17.604;2024-02-04T08:31:15;98555.16;;;0.35;63.02
80139;BME280;69467;59.842;17.604;2024-02-04T08:33:41;98561.19;;;0.42;62.08
80139;BME280;69467;59.842;17.604;2024-02-04T08:36:06;98579.53;;;0.45;62.68
80139;BME280;69467;59.842;17.604;2024-02-04T08:38:32;98574.84;;;0.58;62.57
80139;BME280;69467;59.842;17.604;2024-02-04T08:40:57;98558.47;;;0.59;61.64
80139;BME280;69467;59.842;17.604;2024-02-04T08:43:22;98571.31;;;0.74;61.97
80139;BME280;69467;59.842;17.604;2024-02-04T08:45:47;98557.13;;;0.62;60.90
80139;BME280;69467;59.842;17.604;2024-02-04T08:48:13;98562.31;;;0.69;59.92
80139;BME280;69467;59.842;17.604;2024-02-04T08:50:38;98569.84;;;0.89;59.84
80139;BME280;69467;59.842;17.604;2024-02-04T08:53:03;98558.00;;;0.90;59.55
80139;BME280;69467;59.842;17.604;2024-02-04T08:55:28;98543.97;;;0.88;59.99
80139;BME280;69467;59.842;17.604;2024-02-04T08:57:54;98552.91;;;0.93;59.79
80139;BME280;69467;59.842;17.604;2024-02-04T09:00:19;98562.66;;;1.22;58.65
80139;BME280;69467;59.842;17.604;2024-02-04T09:02:45;98557.56;;;1.53;58.02
80139;BME280;69467;59.842;17.604;2024-02-04T09:05:11;98553.53;;;1.55;57.68
80139;BME280;69467;59.842;17.604;2024-02-04T09:07:37;98553.44;;;1.77;57.39
80139;BME280;69467;59.842;17.604;2024-02-04T09:10:02;98554.69;;;2.02;56.27
80139;BME280;69467;59.842;17.604;2024-02-04T09:12:27;98554.81;;;1.80;56.05
80139;BME280;69467;59.842;17.604;2024-02-04T09:14:52;98549.81;;;1.94;54.93
80139;BME280;69467;59.842;17.604;2024-02-04T09:17:18;98562.38;;;1.78;56.88
80139;BME280;69467;59.842;17.604;2024-02-04T09:19:43;98560.50;;;1.84;56.87
80139;BME280;69467;59.842;17.604;2024-02-04T09:22:08;98566.63;;;2.06;55.91
80139;BME280;69467;59.842;17.604;2024-02-04T09:24:34;98557.63;;;1.96;56.77
80139;BME280;69467;59.842;17.604;2024-02-04T09:27:00;98555.88;;;2.17;56.57
80139;BME280;69467;59.842;17.604;2024-02-04T09:29:25;98560.28;;;2.28;56.17
80139;BME280;69467;59.842;17.604;2024-02-04T09:31:51;98545.38;;;2.73;54.20
80139;BME280;69467;59.842;17.604;2024-02-04T09:34:17;98545.47;;;2.99;53.89
80139;BME280;69467;59.842;17.604;2024-02-04T09:36:43;98569.31;;;3.13;53.11
80139;BME280;69467;59.842;17.604;2024-02-04T09:39:08;98558.78;;;4.25;50.42
80139;BME280;69467;59.842;17.604;2024-02-04T09:41:33;98549.13;;;4.89;48.02
80139;BME280;69467;59.842;17.604;2024-02-04T09:43:58;98545.16;;;5.16;47.89
80139;BME280;69467;59.842;17.604;2024-02-04T09:46:24;98554.88;;;5.32;47.08
80139;BME280;69467;59.842;17.604;2024-02-04T09:48:50;98550.94;;;5.04;48.15
80139;BME280;69467;59.842;17.604;2024-02-04T09:51:16;98551.38;;;5.27;48.82
80139;BME280;69467;59.842;17.604;2024-02-04T09:53:43;98547.78;;;6.65;45.45
80139;BME280;69467;59.842;17.604;2024-02-04T09:56:08;98542.38;;;8.12;41.65
80139;BME280;69467;59.842;17.604;2024-02-04T09:58:35;98545.78;;;10.03;39.73
80139;BME280;69467;59.842;17.604;2024-02-04T10:01:01;98541.06;;;10.26;36.92
80139;BME280;69467;59.842;17.604;2024-02-04T10:03:27;98547.75;;;11.84;36.74
80139;BME280;69467;59.842;17.604;2024-02-04T10:05:53;98548.84;;;11.39;36.04
80139;BME280;69467;59.842;17.604;2024-02-04T10:08:19;98544.63;;;11.16;35.83
80139;BME280;69467;59.842;17.604;2024-02-04T10:10:45;98537.19;;;10.99;35.74
80139;BME280;69467;59.842;17.604;2024-02-04T10:13:10;98531.97;;;8.14;38.88
80139;BME280;69467;59.842;17.604;2024-02-04T10:15:35;98536.88;;;7.65;41.28
80139;BME280;69467;59.842;17.604;2024-02-04T10:18:05;98541.63;;;5.60;44.89
80139;BME280;69467;59.842;17.604;2024-02-04T10:20:31;98537.13;;;5.45;46.34
80139;BME280;69467;59.842;17.604;2024-02-04T10:22:56;98530.31;;;5.08;48.09
80139;BME280;69467;59.842;17.604;2024-02-04T10:25:21;98539.19;;;4.64;48.93
80139;BME280;69467;59.842;17.604;2024-02-04T10:27:46;98531.19;;;5.43;48.42
80139;BME280;69467;59.842;17.604;2024-02-04T10:30:12;98537.97;;;4.96;48.55
80139;BME280;69467;59.842;17.604;2024-02-04T10:32:38;98522.84;;;6.04;46.68
80139;BME280;69467;59.842;17.604;2024-02-04T10:35:03;98528.97;;;5.06;48.16
80139;BME280;69467;59.842;17.604;2024-02-04T10:37:28;98517.47;;;7.34;44.67
80139;BME280;69467;59.842;17.604;2024-02-04T10:39:53;98517.88;;;6.11;47.32
80139;BME280;69467;59.842;17.604;2024-02-04T10:42:21;98511.91;;;8.94;41.46
80139;BME280;69467;59.842;17.604;2024-02-04T10:44:48;98511.38;;;7.75;41.64
80139;BME280;69467;59.842;17.604;2024-02-04T10:47:15;98495.72;;;10.74;38.98
80139;BME280;69467;59.842;17.604;2024-02-04T10:49:43;98483.47;;;12.20;35.98
80139;BME280;69467;59.842;17.604;2024-02-04T10:52:11;98492.91;;;11.32;36.55
80139;BME280;69467;59.842;17.604;2024-02-04T10:54:37;98486.16;;;11.38;36.09
80139;BME280;69467;59.842;17.604;2024-02-04T10:57:05;98493.19;;;10.95;37.94
80139;BME280;69467;59.842;17.604;2024-02-04T10:59:34;98492.41;;;11.73;36.29
80139;BME280;69467;59.842;17.604;2024-02-04T11:02:00;98493.53;;;9.36;37.61
80139;BME280;69467;59.842;17.604;2024-02-04T11:04:26;98495.28;;;7.60;42.02
80139;BME280;69467;59.842;17.604;2024-02-04T11:06:53;98497.63;;;6.95;43.67
80139;BME280;69467;59.842;17.604;2024-02-04T11:09:19;98487.69;;;6.85;44.36
80139;BME280;69467;59.842;17.604;2024-02-04T11:11:45;98489.22;;;6.24;45.88
80139;BME280;69467;59.842;17.604;2024-02-04T11:14:13;98485.88;;;6.32;46.23
80139;BME280;69467;59.842;17.604;2024-02-04T11:16:45;98484.88;;;5.93;46.91
80139;BME280;69467;59.842;17.604;2024-02-04T11:27:21;98489.97;;;4.36;52.85
80139;BME280;69467;59.842;17.604;2024-02-04T11:29:47;98488.38;;;4.14;54.11
80139;BME280;69467;59.842;17.604;2024-02-04T11:32:12;98483.84;;;3.89;54.79
80139;BME280;69467;59.842;17.604;2024-02-04T11:34:38;98481.16;;;3.74;55.50
80139;BME280;69467;59.842;17.604;2024-02-04T11:37:15;98480.06;;;3.69;56.40
80139;BME280;69467;59.842;17.604;2024-02-04T11:39:47;98476.28;;;3.70;56.63
80139;BME280;69467;59.842;17.604;2024-02-04T11:42:16;98478.16;;;3.75;56.71
80139;BME280;69467;59.842;17.604;2024-02-04T11:44:41;98476.53;;;3.79;56.88
80139;BME280;69467;59.842;17.604;2024-02-04T11:47:06;98478.44;;;3.79;56.66
80139;BME280;69467;59.842;17.604;2024-02-04T11:49:31;98478.19;;;3.60;57.69
80139;BME280;69467;59.842;17.604;2024-02-04T11:51:57;98469.78;;;3.41;58.71
80139;BME280;69467;59.842;17.604;2024-02-04T11:54:22;98471.16;;;3.28;61.51
80139;BME280;69467;59.842;17.604;2024-02-04T11:56:48;98471.69;;;3.30;60.99
80139;BME280;69467;59.842;17.604;2024-02-04T11:59:18;98480.59;;;3.35;61.34
80139;BME280;69467;59.842;17.604;2024-02-04T12:01:43;98472.78;;;3.29;61.85
80139;BME280;69467;59.842;17.604;2024-02-04T12:04:09;98469.00;;;3.30;61.69
80139;BME280;69467;59.842;17.604;2024-02-04T12:06:34;98473.84;;;3.28;62.00
80139;BME280;69467;59.842;17.604;2024-02-04T12:09:00;98467.88;;;3.31;62.10
80139;BME280;69467;59.842;17.604;2024-02-04T12:11:25;98463.31;;;3.52;61.60
80139;BME280;69467;59.842;17.604;2024-02-04T12:13:50;98467.25;;;4.06;59.86
80139;BME280;69467;59.842;17.604;2024-02-04T12:16:16;98460.41;;;4.40;58.54
80139;BME280;69467;59.842;17.604;2024-02-04T12:18:50;98468.97;;;4.62;57.08
80139;BME280;69467;59.842;17.604;2024-02-04T12:21:15;98466.22;;;4.67;56.29
80139;BME280;69467;59.842;17.604;2024-02-04T12:23:41;98454.25;;;4.79;55.91
80139;BME280;69467;59.842;17.604;2024-02-04T12:26:06;98457.53;;;4.76;55.60
80139;BME280;69467;59.842;17.604;2024-02-04T12:28:31;98446.50;;;5.07;54.55
80139;BME280;69467;59.842;17.604;2024-02-04T12:30:57;98441.88;;;5.42;53.22
80139;BME280;69467;59.842;17.604;2024-02-04T12:33:23;98442.16;;;5.06;54.15
80139;BME280;69467;59.842;17.604;2024-02-04T12:35:52;98437.84;;;4.99;55.00
80139;BME280;69467;59.842;17.604;2024-02-04T12:38:17;98436.91;;;4.75;53.86
80139;BME280;69467;59.842;17.604;2024-02-04T12:40:43;98440.22;;;4.66;54.41
80139;BME280;69467;59.842;17.604;2024-02-04T12:43:10;98426.19;;;4.49;54.50
80139;BME280;69467;59.842;17.604;2024-02-04T12:45:35;98427.03;;;4.49;55.11
80139;BME280;69467;59.842;17.604;2024-02-04T12:48:01;98429.81;;;4.34;54.56
80139;BME280;69467;59.842;17.604;2024-02-04T12:50:26;98437.66;;;4.35;55.09
80139;BME280;69467;59.842;17.604;2024-02-04T12:53:05;98426.28;;;4.33;55.39
80139;BME280;69467;59.842;17.604;2024-02-04T12:55:30;98433.56;;;4.38;55.06
80139;BME280;69467;59.842;17.604;2024-02-04T12:58:08;98430.34;;;4.36;54.33
80139;BME280;69467;59.842;17.604;2024-02-04T13:00:34;98423.06;;;4.26;53.82
80139;BME280;69467;59.842;17.604;2024-02-04T13:03:00;98417.19;;;4.09;54.79
80139;BME280;69467;59.842;17.604;2024-02-04T13:05:26;98412.50;;;4.19;54.34